createdAt,value
2023-10-27T00:01:31.365Z,9.91
2023-10-27T00:03:58.352Z,9.92
2023-10-27T00:06:25.527Z,9.94
2023-10-27T00:08:52.460Z,9.97
2023-10-27T00:11:19.771Z,9.91
2023-10-27T00:13:46.679Z,9.94
2023-10-27T00:16:13.677Z,9.96
2023-10-27T00:18:40.762Z,9.99
2023-10-27T00:21:07.720Z,9.98
2023-10-27T00:23:34.755Z,9.97
2023-10-27T00:26:02.565Z,9.94
2023-10-27T00:28:30.547Z,10.01
2023-10-27T00:30:59.874Z,9.93
2023-10-27T00:33:26.828Z,9.98
2023-10-27T00:35:54.434Z,9.94
2023-10-27T00:38:21.808Z,9.91
2023-10-27T00:40:49.046Z,9.89
2023-10-27T00:43:20.517Z,9.96
2023-10-27T00:45:51.072Z,9.99
2023-10-27T00:48:19.310Z,10.00
2023-10-27T00:50:46.375Z,9.94
2023-10-27T00:53:14.696Z,9.97
2023-10-27T00:55:42.281Z,9.98
2023-10-27T00:58:12.155Z,9.97
2023-10-27T01:00:39.739Z,10.01
2023-10-27T01:03:06.688Z,9.94
2023-10-27T01:05:33.792Z,9.92
2023-10-27T01:08:03.768Z,9.91
2023-10-27T01:10:32.302Z,9.92
2023-10-27T01:12:59.656Z,9.89
2023-10-27T01:15:27.160Z,9.87
2023-10-27T01:17:54.516Z,9.89
2023-10-27T01:20:21.632Z,9.96
2023-10-27T01:22:50.152Z,9.96
2023-10-27T01:25:17.929Z,9.96
2023-10-27T01:27:45.654Z,9.92
2023-10-27T01:30:12.904Z,9.87
2023-10-27T01:32:41.836Z,9.86
2023-10-27T01:35:09.434Z,9.87
2023-10-27T01:37:36.502Z,9.92
2023-10-27T01:40:06.953Z,9.88
2023-10-27T01:42:36.224Z,9.94
2023-10-27T01:45:07.116Z,9.91
2023-10-27T01:47:34.530Z,9.98
2023-10-27T01:50:01.474Z,9.95
2023-10-27T01:52:28.752Z,9.90
2023-10-27T01:54:55.792Z,9.93
2023-10-27T01:57:24.539Z,9.94
2023-10-27T01:59:52.167Z,9.87
2023-10-27T02:02:19.378Z,9.87
2023-10-27T02:04:46.562Z,9.87
2023-10-27T02:07:14.183Z,9.89
2023-10-27T02:09:41.182Z,9.85
2023-10-27T02:12:11.337Z,9.83
2023-10-27T02:14:39.803Z,9.78
2023-10-27T02:17:07.120Z,9.85
2023-10-27T02:19:34.348Z,9.81
2023-10-27T02:22:01.692Z,9.83
2023-10-27T02:24:29.452Z,9.83
2023-10-27T02:26:56.440Z,9.78
2023-10-27T02:29:23.470Z,9.82
2023-10-27T02:31:50.605Z,9.84
2023-10-27T02:34:17.818Z,9.80
2023-10-27T02:36:44.858Z,9.79
2023-10-27T02:39:12.077Z,9.79
2023-10-27T02:41:38.964Z,9.77
2023-10-27T02:44:06.542Z,9.75
2023-10-27T02:46:34.248Z,9.77
2023-10-27T02:49:01.791Z,9.73
2023-10-27T02:51:28.784Z,9.77
2023-10-27T02:53:57.180Z,9.71
2023-10-27T02:56:24.401Z,9.73
2023-10-27T02:58:52.063Z,9.76
2023-10-27T03:01:19.339Z,9.78
2023-10-27T03:03:46.558Z,9.81
2023-10-27T03:06:13.850Z,9.77
2023-10-27T03:08:42.321Z,9.78
2023-10-27T03:11:12.248Z,9.76
2023-10-27T03:13:39.245Z,9.77
2023-10-27T03:16:06.678Z,9.72
2023-10-27T03:18:34.093Z,9.75
2023-10-27T03:21:05.173Z,9.79
2023-10-27T03:23:32.305Z,9.78
2023-10-27T03:26:02.292Z,9.82
2023-10-27T03:28:29.496Z,9.81
2023-10-27T03:30:56.627Z,9.80
2023-10-27T03:33:23.581Z,9.83
2023-10-27T03:35:50.919Z,9.83
2023-10-27T03:38:18.949Z,9.86
2023-10-27T03:40:46.700Z,9.86
2023-10-27T03:43:15.843Z,9.85
2023-10-27T03:45:43.061Z,9.85
2023-10-27T03:48:10.310Z,9.83
2023-10-27T03:50:38.050Z,9.84
2023-10-27T03:53:05.057Z,9.85
2023-10-27T03:55:32.286Z,9.83
2023-10-27T03:58:18.406Z,9.80
2023-10-27T04:00:46.209Z,9.86
2023-10-27T04:03:13.625Z,9.86
2023-10-27T04:05:40.971Z,9.88
2023-10-27T04:08:08.193Z,9.86
2023-10-27T04:10:37.052Z,9.88
2023-10-27T04:13:05.467Z,9.87
2023-10-27T04:15:33.056Z,9.90
2023-10-27T04:18:00.286Z,9.92
2023-10-27T04:20:27.746Z,9.92
2023-10-27T04:22:54.740Z,9.89
2023-10-27T04:25:21.796Z,9.90
2023-10-27T04:27:48.647Z,9.92
2023-10-27T04:30:16.643Z,9.97
2023-10-27T04:32:43.861Z,9.93
2023-10-27T04:35:11.259Z,9.94
2023-10-27T04:37:38.291Z,9.95
2023-10-27T04:40:05.886Z,9.97
2023-10-27T04:42:32.969Z,9.97
2023-10-27T04:45:00.458Z,9.96
2023-10-27T04:47:27.618Z,9.96
2023-10-27T04:49:55.082Z,9.94
2023-10-27T04:52:22.132Z,9.97
2023-10-27T04:54:49.034Z,9.93
2023-10-27T04:57:16.070Z,9.98
2023-10-27T04:59:42.973Z,9.99
2023-10-27T05:02:10.179Z,10.02
2023-10-27T05:04:37.190Z,9.99
2023-10-27T05:07:07.217Z,9.98
2023-10-27T05:09:34.651Z,10.03
2023-10-27T05:12:02.223Z,10.01
2023-10-27T05:14:29.206Z,10.02
2023-10-27T05:16:56.199Z,10.02
2023-10-27T05:19:23.480Z,10.07
2023-10-27T05:21:50.397Z,10.04
2023-10-27T05:24:17.445Z,10.03
2023-10-27T05:26:44.694Z,10.00
2023-10-27T05:29:11.673Z,10.04
2023-10-27T05:31:40.786Z,10.05
2023-10-27T05:34:07.869Z,10.08
2023-10-27T05:36:36.768Z,10.07
2023-10-27T05:39:03.953Z,10.06
2023-10-27T05:41:31.006Z,10.09
2023-10-27T05:43:57.979Z,10.12
2023-10-27T05:46:24.949Z,10.08
2023-10-27T05:48:51.970Z,10.09
2023-10-27T05:51:18.882Z,10.11
2023-10-27T05:53:45.976Z,10.11
2023-10-27T05:56:12.915Z,10.10
2023-10-27T05:58:40.070Z,10.13
2023-10-27T06:01:06.932Z,10.13
2023-10-27T06:03:34.299Z,10.15
2023-10-27T06:06:02.135Z,10.14
2023-10-27T06:08:29.026Z,10.10
2023-10-27T06:10:56.037Z,10.21
2023-10-27T06:13:22.942Z,10.18
2023-10-27T06:15:49.969Z,10.19
2023-10-27T06:18:17.077Z,10.18
2023-10-27T06:20:44.192Z,10.17
2023-10-27T06:23:13.198Z,10.15
2023-10-27T06:25:40.955Z,10.16
2023-10-27T06:28:08.018Z,10.20
2023-10-27T06:30:34.941Z,10.21
2023-10-27T06:33:02.499Z,10.19
2023-10-27T06:35:29.464Z,10.21
2023-10-27T06:37:56.573Z,10.20
2023-10-27T06:40:23.743Z,10.19
2023-10-27T06:42:50.724Z,10.20
2023-10-27T06:45:17.609Z,10.21
2023-10-27T06:47:44.836Z,10.21
2023-10-27T06:50:12.161Z,10.24
2023-10-27T06:52:39.517Z,10.21
2023-10-27T06:55:06.562Z,10.18
2023-10-27T06:57:33.530Z,10.21
2023-10-27T07:00:00.625Z,10.19
2023-10-27T07:02:27.821Z,10.15
2023-10-27T07:04:56.473Z,10.14
2023-10-27T07:07:28.826Z,10.19
2023-10-27T07:09:56.982Z,10.20
2023-10-27T07:12:24.179Z,10.24
2023-10-27T07:14:51.210Z,10.24
2023-10-27T07:17:18.279Z,10.26
2023-10-27T07:19:45.428Z,10.29
2023-10-27T07:22:12.889Z,10.32
2023-10-27T07:24:39.745Z,10.39
2023-10-27T07:27:06.816Z,10.40
2023-10-27T07:29:33.703Z,10.36
2023-10-27T07:32:01.003Z,10.35
2023-10-27T07:34:27.961Z,10.38
2023-10-27T07:36:55.116Z,10.43
2023-10-27T07:39:23.921Z,10.43
2023-10-27T07:41:54.471Z,10.43
2023-10-27T07:44:21.536Z,10.50
2023-10-27T07:46:48.696Z,10.52
2023-10-27T07:49:16.127Z,10.57
2023-10-27T07:51:43.262Z,10.61
2023-10-27T07:54:10.255Z,10.63
2023-10-27T07:56:37.167Z,10.67
2023-10-27T07:59:04.075Z,10.70
2023-10-27T08:01:31.150Z,10.68
2023-10-27T08:03:58.113Z,10.75
2023-10-27T08:06:25.220Z,10.76
2023-10-27T08:08:52.151Z,10.78
2023-10-27T08:11:19.127Z,10.77
2023-10-27T08:13:46.266Z,10.82
2023-10-27T08:16:14.741Z,10.87
2023-10-27T08:18:41.912Z,10.86
2023-10-27T08:21:09.245Z,10.92
2023-10-27T08:23:36.412Z,10.90
2023-10-27T08:26:03.565Z,10.91
2023-10-27T08:28:30.602Z,10.92
2023-10-27T08:30:57.903Z,10.98
2023-10-27T08:33:26.133Z,11.00
2023-10-27T08:35:53.207Z,11.03
2023-10-27T08:38:20.219Z,11.11
2023-10-27T08:40:47.832Z,11.13
2023-10-27T08:43:15.057Z,11.08
2023-10-27T08:45:43.499Z,11.15
2023-10-27T08:48:13.805Z,11.11
2023-10-27T08:50:42.056Z,11.16
2023-10-27T08:53:13.720Z,11.13
2023-10-27T08:55:40.911Z,11.16
2023-10-27T08:58:07.863Z,11.15
2023-10-27T09:00:34.870Z,11.26
2023-10-27T09:03:15.860Z,11.26
2023-10-27T09:05:44.108Z,11.32
2023-10-27T09:08:12.066Z,11.32
2023-10-27T09:10:39.504Z,11.28
2023-10-27T09:13:06.760Z,11.28
2023-10-27T09:15:46.863Z,11.23
2023-10-27T09:18:15.155Z,11.22
2023-10-27T09:20:52.744Z,11.28
2023-10-27T09:23:21.487Z,11.28
2023-10-27T09:25:48.833Z,11.27
2023-10-27T09:28:16.130Z,11.28
2023-10-27T09:30:44.325Z,11.27
2023-10-27T09:33:20.343Z,11.23
2023-10-27T09:35:48.268Z,11.23
2023-10-27T09:38:18.397Z,11.26
2023-10-27T09:40:47.398Z,11.28
2023-10-27T09:43:20.830Z,11.27
2023-10-27T09:45:56.402Z,11.37
2023-10-27T09:48:29.261Z,11.38
2023-10-27T09:51:18.951Z,11.38
2023-10-27T09:53:48.545Z,11.42
2023-10-27T09:56:16.044Z,11.43
2023-10-27T09:58:43.288Z,11.39
2023-10-27T10:01:11.311Z,11.40
2023-10-27T10:03:42.547Z,11.35
2023-10-27T10:06:19.323Z,11.32
2023-10-27T10:09:07.586Z,11.34
2023-10-27T10:11:55.603Z,11.37
2023-10-27T10:14:38.060Z,11.31
2023-10-27T10:17:05.728Z,11.41
2023-10-27T10:19:52.185Z,11.40
2023-10-27T10:22:41.312Z,11.46
2023-10-27T10:25:24.168Z,11.48
2023-10-27T10:28:13.034Z,11.44
2023-10-27T10:30:45.074Z,11.49
2023-10-27T10:33:18.388Z,11.54
2023-10-27T10:35:49.351Z,11.57
2023-10-27T10:38:25.294Z,11.57
2023-10-27T10:40:56.912Z,11.59
2023-10-27T10:43:42.484Z,11.56
2023-10-27T10:46:13.954Z,11.53
2023-10-27T10:48:42.420Z,11.48
2023-10-27T10:51:20.659Z,11.51
2023-10-27T10:53:55.144Z,11.52
2023-10-27T10:56:23.217Z,11.55
2023-10-27T10:58:50.364Z,11.52
2023-10-27T11:01:18.859Z,11.51
2023-10-27T11:03:51.670Z,11.57
2023-10-27T11:06:23.562Z,11.62
2023-10-27T11:08:51.071Z,11.63
2023-10-27T11:11:19.034Z,11.66
2023-10-27T11:13:51.877Z,11.61
2023-10-27T11:16:23.684Z,11.63
2023-10-27T11:18:53.901Z,11.67
2023-10-27T11:21:23.102Z,11.70
2023-10-27T11:23:51.245Z,11.60
2023-10-27T11:26:20.615Z,11.60
2023-10-27T11:28:48.129Z,11.55
2023-10-27T11:31:24.566Z,11.66
2023-10-27T11:34:02.733Z,11.72
2023-10-27T11:36:41.253Z,11.68
2023-10-27T11:39:24.772Z,11.67
2023-10-27T11:41:54.666Z,11.59
2023-10-27T11:44:22.268Z,11.59
2023-10-27T11:46:50.882Z,11.55
2023-10-27T11:49:18.533Z,11.53
2023-10-27T11:51:46.607Z,11.53
2023-10-27T11:54:14.096Z,11.50
2023-10-27T11:56:40.952Z,11.47
2023-10-27T11:59:08.896Z,11.41
2023-10-27T12:01:35.877Z,11.47
2023-10-27T12:04:03.301Z,11.58
2023-10-27T12:06:31.578Z,11.60
2023-10-27T12:08:58.625Z,11.62
2023-10-27T12:11:25.608Z,11.70
2023-10-27T12:13:52.528Z,11.68
2023-10-27T12:16:19.601Z,11.70
2023-10-27T12:18:46.516Z,11.65
2023-10-27T12:21:13.848Z,11.68
2023-10-27T12:23:40.787Z,11.69
2023-10-27T12:26:09.218Z,11.62
2023-10-27T12:28:36.907Z,11.65
2023-10-27T12:31:04.756Z,11.61
2023-10-27T12:33:31.719Z,11.59
2023-10-27T12:35:58.768Z,11.49
2023-10-27T12:38:25.740Z,11.51
2023-10-27T12:40:52.835Z,11.54
2023-10-27T12:43:20.903Z,11.56
2023-10-27T12:45:48.556Z,11.49
2023-10-27T12:48:15.550Z,11.54
2023-10-27T12:50:43.054Z,11.53
2023-10-27T12:53:09.984Z,11.50
2023-10-27T12:55:37.077Z,11.45
2023-10-27T12:58:10.217Z,11.45
2023-10-27T13:00:37.516Z,11.32
2023-10-27T13:03:05.694Z,11.35
2023-10-27T13:05:32.877Z,11.40
2023-10-27T13:08:00.033Z,11.52
2023-10-27T13:10:27.314Z,11.53
2023-10-27T13:13:01.720Z,11.40
2023-10-27T13:15:30.433Z,11.50
2023-10-27T13:17:57.464Z,11.45
2023-10-27T13:20:24.433Z,11.46
2023-10-27T13:22:51.474Z,11.49
2023-10-27T13:25:18.696Z,11.38
2023-10-27T13:27:46.523Z,11.47
2023-10-27T13:30:15.355Z,11.49
2023-10-27T13:32:45.181Z,11.42
2023-10-27T13:35:13.381Z,11.38
2023-10-27T13:37:40.447Z,11.41
2023-10-27T13:40:09.501Z,11.49
2023-10-27T13:42:37.694Z,11.47
2023-10-27T13:45:04.991Z,11.46
2023-10-27T13:47:33.120Z,11.44
2023-10-27T13:50:00.129Z,11.41
2023-10-27T13:52:27.249Z,11.44
2023-10-27T13:54:54.480Z,11.29
2023-10-27T13:57:22.799Z,11.39
2023-10-27T13:59:49.872Z,11.24
2023-10-27T14:02:16.954Z,11.28
2023-10-27T14:04:44.140Z,11.28
2023-10-27T14:07:11.282Z,11.21
2023-10-27T14:09:38.348Z,11.18
2023-10-27T14:12:06.032Z,11.21
2023-10-27T14:14:32.972Z,11.24
2023-10-27T14:17:01.490Z,11.14
2023-10-27T14:19:29.934Z,11.08
2023-10-27T14:21:58.314Z,11.15
2023-10-27T14:24:25.398Z,11.10
2023-10-27T14:26:53.405Z,11.11
2023-10-27T14:29:20.497Z,11.04
2023-10-27T14:31:47.738Z,11.03
2023-10-27T14:34:14.987Z,11.02
2023-10-27T14:36:41.960Z,11.07
2023-10-27T14:39:09.193Z,11.05
2023-10-27T14:41:36.135Z,11.04
2023-10-27T14:44:03.352Z,11.03
2023-10-27T14:46:33.117Z,11.06
2023-10-27T14:49:01.470Z,11.09
2023-10-27T14:51:28.817Z,11.11
2023-10-27T14:53:56.301Z,11.18
2023-10-27T14:56:23.257Z,11.21
2023-10-27T14:58:54.647Z,11.27
2023-10-27T15:01:26.257Z,11.30
2023-10-27T15:03:54.324Z,11.21
2023-10-27T15:06:21.465Z,11.08
2023-10-27T15:08:48.505Z,11.12
2023-10-27T15:11:15.581Z,11.09
2023-10-27T15:13:42.767Z,11.11
2023-10-27T15:16:11.933Z,11.09
2023-10-27T15:18:39.652Z,11.20
2023-10-27T15:21:19.197Z,11.16
2023-10-27T15:23:49.919Z,11.18
2023-10-27T15:26:18.984Z,11.23
2023-10-27T15:28:48.493Z,11.20
2023-10-27T15:31:16.236Z,11.25
2023-10-27T15:33:44.143Z,11.23
2023-10-27T15:36:13.526Z,11.23
2023-10-27T15:38:44.259Z,11.22
2023-10-27T15:41:33.963Z,11.26
2023-10-27T15:44:01.357Z,11.26
2023-10-27T15:46:34.742Z,11.24
2023-10-27T15:49:02.687Z,11.26
2023-10-27T15:51:29.718Z,11.23
2023-10-27T15:54:01.292Z,11.27
2023-10-27T15:56:28.692Z,11.20
2023-10-27T15:58:57.330Z,11.19
2023-10-27T16:01:25.037Z,11.21
2023-10-27T16:03:52.741Z,11.20
2023-10-27T16:06:20.991Z,11.18
2023-10-27T16:08:47.961Z,11.21
2023-10-27T16:11:15.581Z,11.22
2023-10-27T16:13:44.162Z,11.23
2023-10-27T16:16:12.138Z,11.27
2023-10-27T16:18:39.306Z,11.26
2023-10-27T16:21:06.393Z,11.21
2023-10-27T16:23:33.480Z,11.18
2023-10-27T16:26:05.438Z,11.12
2023-10-27T16:28:33.288Z,11.07
2023-10-27T16:31:04.187Z,11.06
2023-10-27T16:33:32.937Z,11.03
2023-10-27T16:36:04.080Z,11.09
2023-10-27T16:38:31.327Z,11.06
2023-10-27T16:40:58.789Z,11.05
2023-10-27T16:43:26.309Z,11.06
2023-10-27T16:45:53.589Z,11.08
2023-10-27T16:48:20.608Z,11.06
2023-10-27T16:50:48.027Z,11.03
2023-10-27T16:53:15.018Z,11.00
2023-10-27T16:55:41.900Z,10.98
2023-10-27T16:58:08.956Z,10.98
2023-10-27T17:00:35.979Z,10.94
2023-10-27T17:03:04.053Z,10.92
2023-10-27T17:05:31.164Z,10.88
2023-10-27T17:07:59.076Z,10.88
2023-10-27T17:10:26.223Z,10.92
2023-10-27T17:12:53.454Z,10.89
2023-10-27T17:15:20.511Z,10.93
2023-10-27T17:17:47.866Z,10.89
2023-10-27T17:20:17.686Z,10.85
2023-10-27T17:22:46.452Z,10.83
2023-10-27T17:25:13.862Z,10.85
2023-10-27T17:27:40.927Z,10.81
2023-10-27T17:30:11.172Z,10.84
2023-10-27T17:32:42.020Z,10.81
2023-10-27T17:35:09.306Z,10.73
2023-10-27T17:37:36.417Z,10.72
2023-10-27T17:40:03.744Z,10.72
2023-10-27T17:42:34.550Z,10.65
2023-10-27T17:45:01.960Z,10.62
2023-10-27T17:47:29.290Z,10.59
2023-10-27T17:49:58.003Z,10.51
2023-10-27T17:52:25.345Z,10.56
2023-10-27T17:54:52.682Z,10.50
2023-10-27T17:57:21.064Z,10.45
2023-10-27T17:59:48.211Z,10.40
2023-10-27T18:02:15.039Z,10.34
2023-10-27T18:04:42.250Z,10.36
2023-10-27T18:07:10.218Z,10.39
2023-10-27T18:09:38.045Z,10.31
2023-10-27T18:12:06.918Z,10.32
2023-10-27T18:14:33.973Z,10.27
2023-10-27T18:17:02.157Z,10.30
2023-10-27T18:19:29.142Z,10.23
2023-10-27T18:21:57.323Z,10.24
2023-10-27T18:24:24.454Z,10.28
2023-10-27T18:26:51.441Z,10.33
2023-10-27T18:29:18.540Z,10.31
2023-10-27T18:31:49.000Z,10.38
2023-10-27T18:34:16.463Z,10.35
2023-10-27T18:36:44.299Z,10.28
2023-10-27T18:39:11.704Z,10.20
2023-10-27T18:41:39.748Z,10.16
2023-10-27T18:44:08.748Z,10.15
2023-10-27T18:46:35.782Z,10.14
2023-10-27T18:49:03.192Z,10.12
2023-10-27T18:51:30.238Z,10.07
2023-10-27T18:53:57.370Z,10.06
2023-10-27T18:56:24.803Z,10.04
2023-10-27T18:58:51.901Z,10.01
2023-10-27T19:01:19.235Z,10.04
2023-10-27T19:03:48.350Z,9.99
2023-10-27T19:06:16.635Z,9.86
2023-10-27T19:08:45.222Z,9.89
2023-10-27T19:11:14.640Z,9.83
2023-10-27T19:13:44.012Z,9.83
2023-10-27T19:16:12.192Z,9.84
2023-10-27T19:18:40.755Z,9.81
2023-10-27T19:21:13.694Z,9.81
2023-10-27T19:23:43.686Z,9.80
2023-10-27T19:26:18.953Z,9.82
2023-10-27T19:28:47.699Z,9.84
2023-10-27T19:31:19.687Z,9.82
2023-10-27T19:33:50.734Z,9.84
2023-10-27T19:36:18.966Z,9.80
2023-10-27T19:38:46.048Z,9.78
2023-10-27T19:41:13.024Z,9.72
2023-10-27T19:43:41.204Z,9.71
2023-10-27T19:46:09.728Z,9.67
2023-10-27T19:48:37.655Z,9.65
2023-10-27T19:51:06.074Z,9.65
2023-10-27T19:53:33.709Z,9.60
2023-10-27T19:56:01.663Z,9.60
2023-10-27T19:58:28.909Z,9.57
2023-10-27T20:00:56.066Z,9.55
2023-10-27T20:03:23.247Z,9.50
2023-10-27T20:05:52.314Z,9.47
2023-10-27T20:08:19.596Z,9.38
2023-10-27T20:10:50.158Z,9.32
2023-10-27T20:13:17.426Z,9.25
2023-10-27T20:15:46.125Z,9.17
2023-10-27T20:18:13.447Z,9.21
2023-10-27T20:20:45.797Z,9.17
2023-10-27T20:23:14.350Z,9.24
2023-10-27T20:25:41.867Z,9.27
2023-10-27T20:28:09.087Z,9.22
2023-10-27T20:30:36.887Z,9.18
2023-10-27T20:33:04.028Z,9.18
2023-10-27T20:35:31.108Z,9.15
2023-10-27T20:37:59.886Z,9.15
2023-10-27T20:40:27.291Z,9.07
2023-10-27T20:42:56.664Z,9.13
2023-10-27T20:45:24.166Z,9.07
2023-10-27T20:47:52.052Z,9.12
2023-10-27T20:50:22.248Z,9.18
2023-10-27T20:52:49.234Z,9.15
2023-10-27T20:55:19.821Z,9.12
2023-10-27T20:57:47.599Z,9.08
2023-10-27T21:00:19.259Z,8.94
2023-10-27T21:02:46.272Z,8.92
2023-10-27T21:05:13.388Z,8.89
2023-10-27T21:07:40.888Z,8.89
2023-10-27T21:10:08.570Z,8.79
2023-10-27T21:12:35.579Z,8.75
2023-10-27T21:15:06.617Z,8.77
2023-10-27T21:17:34.680Z,8.73
2023-10-27T21:20:01.788Z,8.82
2023-10-27T21:22:31.789Z,8.83
2023-10-27T21:24:58.911Z,8.81
2023-10-27T21:27:25.850Z,8.76
2023-10-27T21:29:55.724Z,8.77
2023-10-27T21:32:22.770Z,8.82
2023-10-27T21:34:50.109Z,8.88
2023-10-27T21:37:17.242Z,8.84
2023-10-27T21:39:53.535Z,8.89
2023-10-27T21:42:20.855Z,8.87
2023-10-27T21:44:48.443Z,8.88
2023-10-27T21:47:15.939Z,8.85
2023-10-27T21:49:46.557Z,8.85
2023-10-27T21:52:14.631Z,8.90
2023-10-27T21:54:41.710Z,8.85
2023-10-27T21:57:10.420Z,8.83
2023-10-27T21:59:40.160Z,8.87
2023-10-27T22:02:07.573Z,8.84
2023-10-27T22:04:35.936Z,8.75
2023-10-27T22:07:03.270Z,8.74
2023-10-27T22:09:30.190Z,8.73
2023-10-27T22:11:57.260Z,8.75
2023-10-27T22:14:24.272Z,8.74
2023-10-27T22:16:52.541Z,8.70
2023-10-27T22:19:20.274Z,8.68
2023-10-27T22:21:48.968Z,8.72
2023-10-27T22:24:16.082Z,8.71
2023-10-27T22:26:44.129Z,8.68
2023-10-27T22:29:11.787Z,8.71
2023-10-27T22:31:40.213Z,8.72
2023-10-27T22:34:10.258Z,8.68
2023-10-27T22:36:38.309Z,8.73
2023-10-27T22:39:05.645Z,8.73
2023-10-27T22:41:32.936Z,8.77
2023-10-27T22:44:00.593Z,8.78
2023-10-27T22:46:28.366Z,8.80
2023-10-27T22:48:55.732Z,8.74
2023-10-27T22:51:22.704Z,8.79
2023-10-27T22:53:49.649Z,8.76
2023-10-27T22:56:16.768Z,8.75
2023-10-27T22:58:43.759Z,8.75
2023-10-27T23:01:14.606Z,8.72
2023-10-27T23:03:41.855Z,8.71
2023-10-27T23:06:10.066Z,8.69
2023-10-27T23:08:37.613Z,8.63
2023-10-27T23:11:09.852Z,8.66
2023-10-27T23:13:38.710Z,8.67
2023-10-27T23:16:06.816Z,8.67
2023-10-27T23:18:34.935Z,8.61
2023-10-27T23:21:09.275Z,8.62
2023-10-27T23:23:42.390Z,8.53
2023-10-27T23:26:10.417Z,8.56
2023-10-27T23:28:37.899Z,8.54
2023-10-27T23:31:06.313Z,8.59
2023-10-27T23:33:33.451Z,8.58
2023-10-27T23:36:01.542Z,8.63
2023-10-27T23:38:32.448Z,8.61
2023-10-27T23:41:06.583Z,8.49
2023-10-27T23:43:34.002Z,8.43
2023-10-27T23:46:12.266Z,8.37
2023-10-27T23:48:39.704Z,8.37
2023-10-27T23:51:08.332Z,8.41
2023-10-27T23:53:35.679Z,8.41
2023-10-27T23:56:02.995Z,8.44
2023-10-27T23:58:30.663Z,8.41
